Terminal Aerodrome Forecast
Issued by NWS

Home | Current Version | Previous Version | Text Only | Print | Product List | Glossary On
Versions: 1 2 3 4 5 6 7 8 9 10 11 12 13
779
FTUS45 KRIW 080528
TAFBPI
TAF
KBPI 080528Z 0806/0906 34015KT P6SM FEW100 SCT250 WS015/33040KT
     FM081800 33014G20KT P6SM SKC
     FM090000 34011KT P6SM SKC=

USA.gov is the U.S. government's official web portal to all federal, state and local government web resources and services.